sensor_id;sensor_type;location;lat;lon;timestamp;P1;durP1;ratioP1;P2;durP2;ratioP2
29044;SDS011;16133;49.486;12.176;2023-09-18T00:00:24;11.57;;;7.75;;
29044;SDS011;16133;49.486;12.176;2023-09-18T00:02:49;11.48;;;7.13;;
29044;SDS011;16133;49.486;12.176;2023-09-18T00:05:15;11.95;;;7.68;;
29044;SDS011;16133;49.486;12.176;2023-09-18T00:07:44;11.20;;;7.50;;
29044;SDS011;16133;49.486;12.176;2023-09-18T00:10:13;11.50;;;7.60;;
29044;SDS011;16133;49.486;12.176;2023-09-18T00:12:39;11.57;;;7.82;;
29044;SDS011;16133;49.486;12.176;2023-09-18T00:15:05;10.70;;;6.80;;
29044;SDS011;16133;49.486;12.176;2023-09-18T00:17:34;9.55;;;6.72;;
29044;SDS011;16133;49.486;12.176;2023-09-18T00:20:00;11.80;;;6.43;;
29044;SDS011;16133;49.486;12.176;2023-09-18T00:22:25;10.80;;;6.75;;
29044;SDS011;16133;49.486;12.176;2023-09-18T00:24:50;11.65;;;7.05;;
29044;SDS011;16133;49.486;12.176;2023-09-18T00:27:16;9.40;;;6.60;;
29044;SDS011;16133;49.486;12.176;2023-09-18T00:29:42;9.07;;;6.20;;
29044;SDS011;16133;49.486;12.176;2023-09-18T00:32:07;10.55;;;6.70;;
29044;SDS011;16133;49.486;12.176;2023-09-18T00:34:33;9.35;;;6.82;;
29044;SDS011;16133;49.486;12.176;2023-09-18T00:36:58;8.95;;;6.22;;
29044;SDS011;16133;49.486;12.176;2023-09-18T00:39:27;10.60;;;6.50;;
29044;SDS011;16133;49.486;12.176;2023-09-18T00:41:52;9.30;;;5.93;;
29044;SDS011;16133;49.486;12.176;2023-09-18T00:44:25;11.63;;;6.03;;
29044;SDS011;16133;49.486;12.176;2023-09-18T00:46:53;9.70;;;6.50;;
29044;SDS011;16133;49.486;12.176;2023-09-18T00:49:20;10.30;;;6.35;;
29044;SDS011;16133;49.486;12.176;2023-09-18T00:51:47;10.55;;;6.85;;
29044;SDS011;16133;49.486;12.176;2023-09-18T00:54:13;10.73;;;6.72;;
29044;SDS011;16133;49.486;12.176;2023-09-18T00:56:43;9.10;;;6.43;;
29044;SDS011;16133;49.486;12.176;2023-09-18T00:59:09;11.50;;;6.80;;
29044;SDS011;16133;49.486;12.176;2023-09-18T01:01:35;10.95;;;7.10;;
29044;SDS011;16133;49.486;12.176;2023-09-18T01:04:01;10.60;;;6.63;;
29044;SDS011;16133;49.486;12.176;2023-09-18T01:06:27;9.63;;;5.68;;
29044;SDS011;16133;49.486;12.176;2023-09-18T01:08:55;11.65;;;6.78;;
29044;SDS011;16133;49.486;12.176;2023-09-18T01:16:39;11.07;;;6.93;;
29044;SDS011;16133;49.486;12.176;2023-09-18T01:19:15;8.88;;;6.43;;
29044;SDS011;16133;49.486;12.176;2023-09-18T01:21:41;10.85;;;6.72;;
29044;SDS011;16133;49.486;12.176;2023-09-18T01:24:06;9.40;;;6.47;;
29044;SDS011;16133;49.486;12.176;2023-09-18T01:26:31;12.13;;;6.63;;
29044;SDS011;16133;49.486;12.176;2023-09-18T01:28:57;12.45;;;7.55;;
29044;SDS011;16133;49.486;12.176;2023-09-18T01:31:22;10.25;;;6.13;;
29044;SDS011;16133;49.486;12.176;2023-09-18T01:33:48;10.98;;;6.63;;
29044;SDS011;16133;49.486;12.176;2023-09-18T01:36:14;10.20;;;6.30;;
29044;SDS011;16133;49.486;12.176;2023-09-18T01:38:42;10.52;;;6.90;;
29044;SDS011;16133;49.486;12.176;2023-09-18T01:41:09;10.45;;;7.30;;
29044;SDS011;16133;49.486;12.176;2023-09-18T01:43:34;9.38;;;6.60;;
29044;SDS011;16133;49.486;12.176;2023-09-18T01:46:00;10.32;;;6.80;;
29044;SDS011;16133;49.486;12.176;2023-09-18T01:48:26;10.73;;;6.70;;
29044;SDS011;16133;49.486;12.176;2023-09-18T01:50:51;12.10;;;7.38;;
29044;SDS011;16133;49.486;12.176;2023-09-18T01:53:16;11.20;;;7.13;;
29044;SDS011;16133;49.486;12.176;2023-09-18T01:55:42;11.55;;;6.88;;
29044;SDS011;16133;49.486;12.176;2023-09-18T01:58:07;9.65;;;6.63;;
29044;SDS011;16133;49.486;12.176;2023-09-18T02:00:34;10.30;;;6.78;;
29044;SDS011;16133;49.486;12.176;2023-09-18T02:02:59;9.45;;;6.50;;
29044;SDS011;16133;49.486;12.176;2023-09-18T02:05:25;13.93;;;6.88;;
29044;SDS011;16133;49.486;12.176;2023-09-18T02:07:50;11.90;;;6.85;;
29044;SDS011;16133;49.486;12.176;2023-09-18T02:10:16;9.93;;;6.68;;
29044;SDS011;16133;49.486;12.176;2023-09-18T02:12:41;10.63;;;6.93;;
29044;SDS011;16133;49.486;12.176;2023-09-18T02:15:07;10.25;;;6.63;;
29044;SDS011;16133;49.486;12.176;2023-09-18T02:17:35;10.48;;;6.95;;
29044;SDS011;16133;49.486;12.176;2023-09-18T02:20:00;10.00;;;6.30;;
29044;SDS011;16133;49.486;12.176;2023-09-18T02:22:31;8.98;;;5.97;;
29044;SDS011;16133;49.486;12.176;2023-09-18T02:24:57;11.30;;;6.45;;
29044;SDS011;16133;49.486;12.176;2023-09-18T02:27:23;8.88;;;6.22;;
29044;SDS011;16133;49.486;12.176;2023-09-18T02:29:49;10.43;;;6.43;;
29044;SDS011;16133;49.486;12.176;2023-09-18T02:32:15;12.63;;;6.13;;
29044;SDS011;16133;49.486;12.176;2023-09-18T02:34:42;8.50;;;5.82;;
29044;SDS011;16133;49.486;12.176;2023-09-18T02:37:07;9.55;;;6.25;;
29044;SDS011;16133;49.486;12.176;2023-09-18T02:39:32;10.60;;;6.82;;
29044;SDS011;16133;49.486;12.176;2023-09-18T02:41:58;9.13;;;6.60;;
29044;SDS011;16133;49.486;12.176;2023-09-18T02:44:23;12.43;;;6.78;;
29044;SDS011;16133;49.486;12.176;2023-09-18T02:46:49;22.90;;;7.03;;
29044;SDS011;16133;49.486;12.176;2023-09-18T02:49:14;11.32;;;6.78;;
29044;SDS011;16133;49.486;12.176;2023-09-18T02:51:39;11.82;;;6.72;;
29044;SDS011;16133;49.486;12.176;2023-09-18T02:54:05;10.32;;;6.70;;
29044;SDS011;16133;49.486;12.176;2023-09-18T02:56:30;9.23;;;6.28;;
29044;SDS011;16133;49.486;12.176;2023-09-18T02:58:56;11.77;;;6.75;;
29044;SDS011;16133;49.486;12.176;2023-09-18T03:01:21;13.05;;;6.63;;
29044;SDS011;16133;49.486;12.176;2023-09-18T03:03:47;11.35;;;7.00;;
29044;SDS011;16133;49.486;12.176;2023-09-18T03:06:12;12.73;;;7.72;;
29044;SDS011;16133;49.486;12.176;2023-09-18T03:08:38;9.73;;;6.60;;
29044;SDS011;16133;49.486;12.176;2023-09-18T03:11:10;11.85;;;7.50;;
29044;SDS011;16133;49.486;12.176;2023-09-18T03:13:36;10.40;;;6.85;;
29044;SDS011;16133;49.486;12.176;2023-09-18T03:16:02;9.70;;;6.70;;
29044;SDS011;16133;49.486;12.176;2023-09-18T03:18:27;11.13;;;6.40;;
29044;SDS011;16133;49.486;12.176;2023-09-18T03:20:53;11.88;;;7.43;;
29044;SDS011;16133;49.486;12.176;2023-09-18T03:23:18;10.70;;;6.85;;
29044;SDS011;16133;49.486;12.176;2023-09-18T03:25:44;10.88;;;6.70;;
29044;SDS011;16133;49.486;12.176;2023-09-18T03:28:09;10.93;;;6.63;;
29044;SDS011;16133;49.486;12.176;2023-09-18T03:30:35;10.73;;;6.85;;
29044;SDS011;16133;49.486;12.176;2023-09-18T03:33:01;9.32;;;6.10;;
29044;SDS011;16133;49.486;12.176;2023-09-18T03:35:28;12.82;;;7.10;;
29044;SDS011;16133;49.486;12.176;2023-09-18T03:37:55;14.23;;;7.10;;
29044;SDS011;16133;49.486;12.176;2023-09-18T03:40:21;10.07;;;7.10;;
29044;SDS011;16133;49.486;12.176;2023-09-18T03:42:47;10.85;;;6.35;;
29044;SDS011;16133;49.486;12.176;2023-09-18T03:45:14;11.82;;;6.60;;
29044;SDS011;16133;49.486;12.176;2023-09-18T03:47:40;10.95;;;6.57;;
29044;SDS011;16133;49.486;12.176;2023-09-18T03:50:07;10.65;;;6.63;;
29044;SDS011;16133;49.486;12.176;2023-09-18T03:52:33;11.60;;;7.10;;
29044;SDS011;16133;49.486;12.176;2023-09-18T03:54:59;9.82;;;6.45;;
29044;SDS011;16133;49.486;12.176;2023-09-18T03:57:25;9.80;;;6.30;;
29044;SDS011;16133;49.486;12.176;2023-09-18T03:59:50;10.93;;;6.47;;
29044;SDS011;16133;49.486;12.176;2023-09-18T04:02:15;11.10;;;6.97;;
29044;SDS011;16133;49.486;12.176;2023-09-18T04:04:41;10.38;;;6.80;;
29044;SDS011;16133;49.486;12.176;2023-09-18T04:07:07;11.68;;;7.60;;
29044;SDS011;16133;49.486;12.176;2023-09-18T04:09:33;11.13;;;7.05;;
29044;SDS011;16133;49.486;12.176;2023-09-18T04:12:02;10.50;;;6.63;;
29044;SDS011;16133;49.486;12.176;2023-09-18T04:14:30;10.02;;;6.40;;
29044;SDS011;16133;49.486;12.176;2023-09-18T04:16:55;9.77;;;6.55;;
29044;SDS011;16133;49.486;12.176;2023-09-18T04:19:21;10.68;;;6.93;;
29044;SDS011;16133;49.486;12.176;2023-09-18T04:21:46;9.63;;;6.18;;
29044;SDS011;16133;49.486;12.176;2023-09-18T04:24:11;9.85;;;6.53;;
29044;SDS011;16133;49.486;12.176;2023-09-18T04:26:37;11.00;;;6.97;;
29044;SDS011;16133;49.486;12.176;2023-09-18T04:29:03;10.18;;;6.70;;
29044;SDS011;16133;49.486;12.176;2023-09-18T04:31:28;10.45;;;6.13;;
29044;SDS011;16133;49.486;12.176;2023-09-18T04:33:54;9.50;;;6.38;;
29044;SDS011;16133;49.486;12.176;2023-09-18T04:36:20;9.65;;;6.43;;
29044;SDS011;16133;49.486;12.176;2023-09-18T04:38:45;13.18;;;6.82;;
29044;SDS011;16133;49.486;12.176;2023-09-18T04:41:11;10.82;;;6.82;;
29044;SDS011;16133;49.486;12.176;2023-09-18T04:43:37;9.68;;;6.65;;
29044;SDS011;16133;49.486;12.176;2023-09-18T04:46:05;11.75;;;7.03;;
29044;SDS011;16133;49.486;12.176;2023-09-18T04:48:31;11.73;;;7.25;;
29044;SDS011;16133;49.486;12.176;2023-09-18T04:50:57;9.02;;;6.10;;
29044;SDS011;16133;49.486;12.176;2023-09-18T04:53:23;11.05;;;6.70;;
29044;SDS011;16133;49.486;12.176;2023-09-18T04:55:49;10.95;;;7.00;;
29044;SDS011;16133;49.486;12.176;2023-09-18T04:58:15;10.13;;;6.65;;
29044;SDS011;16133;49.486;12.176;2023-09-18T05:00:41;11.15;;;7.28;;
29044;SDS011;16133;49.486;12.176;2023-09-18T05:03:07;11.13;;;7.60;;
29044;SDS011;16133;49.486;12.176;2023-09-18T05:05:36;13.55;;;8.02;;
29044;SDS011;16133;49.486;12.176;2023-09-18T05:08:02;11.85;;;7.22;;
29044;SDS011;16133;49.486;12.176;2023-09-18T05:10:29;12.15;;;7.25;;
29044;SDS011;16133;49.486;12.176;2023-09-18T05:12:55;12.38;;;7.30;;
29044;SDS011;16133;49.486;12.176;2023-09-18T05:15:24;12.73;;;7.50;;
29044;SDS011;16133;49.486;12.176;2023-09-18T05:17:51;10.70;;;7.22;;
29044;SDS011;16133;49.486;12.176;2023-09-18T05:20:20;14.23;;;7.65;;
29044;SDS011;16133;49.486;12.176;2023-09-18T05:22:49;15.15;;;7.60;;
29044;SDS011;16133;49.486;12.176;2023-09-18T05:25:15;14.32;;;8.48;;
29044;SDS011;16133;49.486;12.176;2023-09-18T05:27:40;14.90;;;8.02;;
29044;SDS011;16133;49.486;12.176;2023-09-18T05:30:19;14.50;;;7.75;;
29044;SDS011;16133;49.486;12.176;2023-09-18T05:32:46;13.70;;;7.47;;
29044;SDS011;16133;49.486;12.176;2023-09-18T05:35:13;14.65;;;8.63;;
29044;SDS011;16133;49.486;12.176;2023-09-18T05:37:39;12.30;;;8.35;;
29044;SDS011;16133;49.486;12.176;2023-09-18T05:40:09;17.02;;;9.43;;
29044;SDS011;16133;49.486;12.176;2023-09-18T05:42:36;17.52;;;10.18;;
29044;SDS011;16133;49.486;12.176;2023-09-18T05:45:02;17.88;;;10.05;;
29044;SDS011;16133;49.486;12.176;2023-09-18T05:47:29;17.38;;;11.07;;
29044;SDS011;16133;49.486;12.176;2023-09-18T05:49:56;15.65;;;8.95;;
29044;SDS011;16133;49.486;12.176;2023-09-18T05:52:22;18.48;;;10.75;;
29044;SDS011;16133;49.486;12.176;2023-09-18T05:54:48;15.98;;;9.30;;
29044;SDS011;16133;49.486;12.176;2023-09-18T05:57:14;15.48;;;9.45;;
29044;SDS011;16133;49.486;12.176;2023-09-18T05:59:39;15.15;;;9.35;;
29044;SDS011;16133;49.486;12.176;2023-09-18T06:02:08;16.83;;;9.45;;
29044;SDS011;16133;49.486;12.176;2023-09-18T06:04:34;17.90;;;10.35;;
29044;SDS011;16133;49.486;12.176;2023-09-18T06:07:02;15.98;;;9.52;;
29044;SDS011;16133;49.486;12.176;2023-09-18T06:09:28;14.43;;;8.80;;
29044;SDS011;16133;49.486;12.176;2023-09-18T06:11:53;14.02;;;9.10;;
29044;SDS011;16133;49.486;12.176;2023-09-18T06:14:19;14.32;;;9.18;;
29044;SDS011;16133;49.486;12.176;2023-09-18T06:16:44;17.55;;;9.07;;
29044;SDS011;16133;49.486;12.176;2023-09-18T06:19:09;13.43;;;8.70;;
29044;SDS011;16133;49.486;12.176;2023-09-18T06:21:35;11.73;;;7.75;;
29044;SDS011;16133;49.486;12.176;2023-09-18T06:24:00;10.60;;;7.28;;
29044;SDS011;16133;49.486;12.176;2023-09-18T06:26:26;9.60;;;6.75;;
29044;SDS011;16133;49.486;12.176;2023-09-18T06:28:51;8.30;;;6.20;;
29044;SDS011;16133;49.486;12.176;2023-09-18T06:31:18;9.68;;;6.93;;
29044;SDS011;16133;49.486;12.176;2023-09-18T06:33:43;10.63;;;7.10;;
29044;SDS011;16133;49.486;12.176;2023-09-18T06:36:09;8.82;;;6.78;;
29044;SDS011;16133;49.486;12.176;2023-09-18T06:38:34;10.55;;;6.88;;
29044;SDS011;16133;49.486;12.176;2023-09-18T06:40:59;9.30;;;6.85;;
29044;SDS011;16133;49.486;12.176;2023-09-18T06:43:25;9.20;;;6.22;;
29044;SDS011;16133;49.486;12.176;2023-09-18T06:45:50;8.68;;;5.60;;
29044;SDS011;16133;49.486;12.176;2023-09-18T06:48:15;8.65;;;6.18;;
29044;SDS011;16133;49.486;12.176;2023-09-18T06:50:42;6.97;;;5.28;;
29044;SDS011;16133;49.486;12.176;2023-09-18T06:53:07;7.90;;;5.45;;
29044;SDS011;16133;49.486;12.176;2023-09-18T06:55:34;6.72;;;5.30;;
29044;SDS011;16133;49.486;12.176;2023-09-18T06:57:59;6.82;;;5.05;;
29044;SDS011;16133;49.486;12.176;2023-09-18T07:00:25;5.95;;;4.80;;
29044;SDS011;16133;49.486;12.176;2023-09-18T07:02:51;9.68;;;5.03;;
29044;SDS011;16133;49.486;12.176;2023-09-18T07:05:16;5.90;;;4.68;;
29044;SDS011;16133;49.486;12.176;2023-09-18T07:07:41;7.20;;;4.95;;
29044;SDS011;16133;49.486;12.176;2023-09-18T07:10:07;6.00;;;4.85;;
29044;SDS011;16133;49.486;12.176;2023-09-18T07:12:32;6.07;;;4.43;;
29044;SDS011;16133;49.486;12.176;2023-09-18T07:15:02;4.53;;;3.80;;
29044;SDS011;16133;49.486;12.176;2023-09-18T07:17:28;5.10;;;4.25;;
29044;SDS011;16133;49.486;12.176;2023-09-18T07:19:54;4.75;;;3.55;;
29044;SDS011;16133;49.486;12.176;2023-09-18T07:22:19;4.85;;;3.72;;
29044;SDS011;16133;49.486;12.176;2023-09-18T07:24:45;5.57;;;4.18;;
29044;SDS011;16133;49.486;12.176;2023-09-18T07:27:11;6.47;;;4.10;;
29044;SDS011;16133;49.486;12.176;2023-09-18T07:29:36;8.30;;;4.50;;
29044;SDS011;16133;49.486;12.176;2023-09-18T07:32:02;5.43;;;4.00;;
29044;SDS011;16133;49.486;12.176;2023-09-18T07:34:27;6.65;;;4.15;;
29044;SDS011;16133;49.486;12.176;2023-09-18T07:36:53;8.40;;;4.63;;
29044;SDS011;16133;49.486;12.176;2023-09-18T07:39:20;5.85;;;4.15;;
29044;SDS011;16133;49.486;12.176;2023-09-18T07:41:46;6.47;;;4.45;;
29044;SDS011;16133;49.486;12.176;2023-09-18T07:44:12;6.90;;;4.45;;
29044;SDS011;16133;49.486;12.176;2023-09-18T07:46:43;5.55;;;4.13;;
29044;SDS011;16133;49.486;12.176;2023-09-18T07:49:09;4.70;;;4.05;;
29044;SDS011;16133;49.486;12.176;2023-09-18T07:51:34;11.73;;;4.00;;
29044;SDS011;16133;49.486;12.176;2023-09-18T07:53:59;5.45;;;3.90;;
29044;SDS011;16133;49.486;12.176;2023-09-18T07:56:25;5.78;;;4.05;;
29044;SDS011;16133;49.486;12.176;2023-09-18T07:58:50;4.95;;;3.90;;
29044;SDS011;16133;49.486;12.176;2023-09-18T08:01:16;5.55;;;4.13;;
29044;SDS011;16133;49.486;12.176;2023-09-18T08:03:42;5.38;;;3.75;;
29044;SDS011;16133;49.486;12.176;2023-09-18T08:06:07;5.65;;;4.22;;
29044;SDS011;16133;49.486;12.176;2023-09-18T08:08:33;4.43;;;3.95;;
29044;SDS011;16133;49.486;12.176;2023-09-18T08:11:00;4.63;;;3.83;;
29044;SDS011;16133;49.486;12.176;2023-09-18T08:13:33;5.03;;;3.78;;
29044;SDS011;16133;49.486;12.176;2023-09-18T08:15:58;4.28;;;3.58;;
29044;SDS011;16133;49.486;12.176;2023-09-18T08:18:24;4.13;;;3.70;;
29044;SDS011;16133;49.486;12.176;2023-09-18T08:20:51;6.15;;;3.83;;
29044;SDS011;16133;49.486;12.176;2023-09-18T08:23:17;4.53;;;3.80;;
29044;SDS011;16133;49.486;12.176;2023-09-18T08:25:42;5.22;;;4.20;;
29044;SDS011;16133;49.486;12.176;2023-09-18T08:28:08;5.80;;;3.90;;
29044;SDS011;16133;49.486;12.176;2023-09-18T08:30:33;6.05;;;4.00;;
29044;SDS011;16133;49.486;12.176;2023-09-18T08:32:59;4.25;;;3.85;;
29044;SDS011;16133;49.486;12.176;2023-09-18T08:35:24;4.53;;;3.95;;
29044;SDS011;16133;49.486;12.176;2023-09-18T08:37:54;5.00;;;4.50;;
29044;SDS011;16133;49.486;12.176;2023-09-18T08:40:19;5.75;;;4.40;;
29044;SDS011;16133;49.486;12.176;2023-09-18T08:42:46;5.18;;;4.25;;
29044;SDS011;16133;49.486;12.176;2023-09-18T08:45:21;4.63;;;3.67;;
29044;SDS011;16133;49.486;12.176;2023-09-18T08:47:50;5.20;;;4.03;;
29044;SDS011;16133;49.486;12.176;2023-09-18T08:50:17;7.15;;;4.53;;
29044;SDS011;16133;49.486;12.176;2023-09-18T08:52:43;5.88;;;4.40;;
29044;SDS011;16133;49.486;12.176;2023-09-18T08:55:09;5.47;;;4.53;;
29044;SDS011;16133;49.486;12.176;2023-09-18T08:57:36;4.88;;;4.15;;
29044;SDS011;16133;49.486;12.176;2023-09-18T09:00:03;5.63;;;5.03;;
29044;SDS011;16133;49.486;12.176;2023-09-18T09:02:33;6.00;;;4.55;;
29044;SDS011;16133;49.486;12.176;2023-09-18T09:04:58;5.72;;;4.50;;
29044;SDS011;16133;49.486;12.176;2023-09-18T09:07:25;8.77;;;5.15;;
29044;SDS011;16133;49.486;12.176;2023-09-18T09:09:51;6.65;;;4.53;;
29044;SDS011;16133;49.486;12.176;2023-09-18T09:12:38;6.47;;;4.45;;
29044;SDS011;16133;49.486;12.176;2023-09-18T09:15:18;5.70;;;4.45;;
29044;SDS011;16133;49.486;12.176;2023-09-18T09:17:45;5.93;;;4.88;;
29044;SDS011;16133;49.486;12.176;2023-09-18T09:20:12;7.55;;;5.25;;
29044;SDS011;16133;49.486;12.176;2023-09-18T09:22:39;7.75;;;5.03;;
29044;SDS011;16133;49.486;12.176;2023-09-18T09:25:24;5.88;;;4.60;;
29044;SDS011;16133;49.486;12.176;2023-09-18T09:27:51;5.55;;;4.55;;
29044;SDS011;16133;49.486;12.176;2023-09-18T09:30:19;6.32;;;4.68;;
29044;SDS011;16133;49.486;12.176;2023-09-18T09:32:54;6.22;;;5.18;;
29044;SDS011;16133;49.486;12.176;2023-09-18T09:37:54;12.23;;;5.10;;
29044;SDS011;16133;49.486;12.176;2023-09-18T09:40:22;7.70;;;5.25;;
29044;SDS011;16133;49.486;12.176;2023-09-18T09:42:50;6.53;;;5.03;;
29044;SDS011;16133;49.486;12.176;2023-09-18T09:45:19;7.40;;;5.55;;
29044;SDS011;16133;49.486;12.176;2023-09-18T09:47:44;6.18;;;5.30;;
29044;SDS011;16133;49.486;12.176;2023-09-18T09:50:11;6.78;;;4.78;;
29044;SDS011;16133;49.486;12.176;2023-09-18T09:52:56;6.53;;;5.05;;
29044;SDS011;16133;49.486;12.176;2023-09-18T09:57:54;5.22;;;4.28;;
29044;SDS011;16133;49.486;12.176;2023-09-18T10:00:38;5.82;;;4.88;;
29044;SDS011;16133;49.486;12.176;2023-09-18T10:03:08;6.53;;;4.82;;
29044;SDS011;16133;49.486;12.176;2023-09-18T10:05:40;4.60;;;4.10;;
29044;SDS011;16133;49.486;12.176;2023-09-18T10:08:08;5.63;;;4.75;;
29044;SDS011;16133;49.486;12.176;2023-09-18T10:10:41;6.18;;;4.72;;
29044;SDS011;16133;49.486;12.176;2023-09-18T10:13:20;5.63;;;4.65;;
29044;SDS011;16133;49.486;12.176;2023-09-18T10:15:47;5.80;;;4.78;;
29044;SDS011;16133;49.486;12.176;2023-09-18T10:18:22;5.30;;;4.40;;
29044;SDS011;16133;49.486;12.176;2023-09-18T10:20:55;7.03;;;4.57;;
29044;SDS011;16133;49.486;12.176;2023-09-18T10:23:44;8.95;;;5.38;;
29044;SDS011;16133;49.486;12.176;2023-09-18T10:26:19;5.28;;;4.72;;
29044;SDS011;16133;49.486;12.176;2023-09-18T10:28:50;7.53;;;5.03;;
29044;SDS011;16133;49.486;12.176;2023-09-18T10:31:21;6.72;;;4.70;;
29044;SDS011;16133;49.486;12.176;2023-09-18T10:33:47;9.13;;;4.93;;
29044;SDS011;16133;49.486;12.176;2023-09-18T10:36:14;8.07;;;4.47;;
29044;SDS011;16133;49.486;12.176;2023-09-18T10:38:42;9.63;;;5.13;;
29044;SDS011;16133;49.486;12.176;2023-09-18T10:41:14;8.48;;;4.68;;
29044;SDS011;16133;49.486;12.176;2023-09-18T10:43:43;13.77;;;4.78;;
29044;SDS011;16133;49.486;12.176;2023-09-18T10:46:10;11.52;;;4.60;;
29044;SDS011;16133;49.486;12.176;2023-09-18T10:48:38;7.35;;;4.53;;
29044;SDS011;16133;49.486;12.176;2023-09-18T10:51:06;7.47;;;4.75;;
29044;SDS011;16133;49.486;12.176;2023-09-18T10:53:32;7.20;;;4.72;;
29044;SDS011;16133;49.486;12.176;2023-09-18T10:55:57;7.68;;;5.32;;
29044;SDS011;16133;49.486;12.176;2023-09-18T10:58:23;6.32;;;4.25;;
29044;SDS011;16133;49.486;12.176;2023-09-18T11:00:53;9.98;;;4.63;;
29044;SDS011;16133;49.486;12.176;2023-09-18T11:03:21;6.40;;;4.13;;
29044;SDS011;16133;49.486;12.176;2023-09-18T11:06:02;6.40;;;3.83;;
29044;SDS011;16133;49.486;12.176;2023-09-18T11:11:08;7.10;;;4.50;;
29044;SDS011;16133;49.486;12.176;2023-09-18T11:13:50;5.13;;;4.45;;
29044;SDS011;16133;49.486;12.176;2023-09-18T11:19:16;9.47;;;3.93;;
29044;SDS011;16133;49.486;12.176;2023-09-18T11:21:41;7.22;;;3.85;;
29044;SDS011;16133;49.486;12.176;2023-09-18T11:24:15;6.28;;;4.10;;
29044;SDS011;16133;49.486;12.176;2023-09-18T11:26:42;6.10;;;3.90;;
29044;SDS011;16133;49.486;12.176;2023-09-18T11:29:10;4.90;;;4.03;;
29044;SDS011;16133;49.486;12.176;2023-09-18T11:36:45;8.07;;;2.55;;
29044;SDS011;16133;49.486;12.176;2023-09-18T11:39:11;7.43;;;2.80;;
29044;SDS011;16133;49.486;12.176;2023-09-18T11:41:37;12.82;;;2.90;;
29044;SDS011;16133;49.486;12.176;2023-09-18T11:46:37;4.73;;;2.20;;
29044;SDS011;16133;49.486;12.176;2023-09-18T11:49:05;7.65;;;2.92;;
29044;SDS011;16133;49.486;12.176;2023-09-18T11:51:37;5.63;;;3.00;;
29044;SDS011;16133;49.486;12.176;2023-09-18T11:54:03;11.38;;;2.80;;
29044;SDS011;16133;49.486;12.176;2023-09-18T11:56:35;5.45;;;2.33;;
29044;SDS011;16133;49.486;12.176;2023-09-18T11:59:00;10.07;;;2.58;;
29044;SDS011;16133;49.486;12.176;2023-09-18T12:01:30;11.48;;;2.05;;
29044;SDS011;16133;49.486;12.176;2023-09-18T12:04:02;5.13;;;2.30;;
29044;SDS011;16133;49.486;12.176;2023-09-18T12:06:35;6.25;;;2.40;;
29044;SDS011;16133;49.486;12.176;2023-09-18T12:09:01;8.48;;;2.22;;
29044;SDS011;16133;49.486;12.176;2023-09-18T12:11:28;8.82;;;2.40;;
29044;SDS011;16133;49.486;12.176;2023-09-18T12:13:54;7.22;;;2.33;;
29044;SDS011;16133;49.486;12.176;2023-09-18T12:16:20;12.57;;;2.83;;
29044;SDS011;16133;49.486;12.176;2023-09-18T12:18:46;10.50;;;2.50;;
29044;SDS011;16133;49.486;12.176;2023-09-18T12:21:15;6.10;;;2.15;;
29044;SDS011;16133;49.486;12.176;2023-09-18T12:23:43;11.25;;;2.53;;
29044;SDS011;16133;49.486;12.176;2023-09-18T12:26:10;7.70;;;2.70;;
29044;SDS011;16133;49.486;12.176;2023-09-18T12:28:40;6.18;;;2.58;;
29044;SDS011;16133;49.486;12.176;2023-09-18T12:31:15;6.88;;;2.33;;
29044;SDS011;16133;49.486;12.176;2023-09-18T12:33:41;4.80;;;2.15;;
29044;SDS011;16133;49.486;12.176;2023-09-18T12:36:12;7.00;;;2.20;;
29044;SDS011;16133;49.486;12.176;2023-09-18T12:38:43;5.60;;;2.47;;
29044;SDS011;16133;49.486;12.176;2023-09-18T12:41:10;10.30;;;2.55;;
29044;SDS011;16133;49.486;12.176;2023-09-18T12:43:37;7.13;;;1.92;;
29044;SDS011;16133;49.486;12.176;2023-09-18T12:46:07;5.20;;;2.47;;
29044;SDS011;16133;49.486;12.176;2023-09-18T12:48:40;8.65;;;2.78;;
29044;SDS011;16133;49.486;12.176;2023-09-18T12:51:14;4.68;;;2.20;;
29044;SDS011;16133;49.486;12.176;2023-09-18T12:53:41;6.28;;;3.05;;
29044;SDS011;16133;49.486;12.176;2023-09-18T12:56:07;4.70;;;2.40;;
29044;SDS011;16133;49.486;12.176;2023-09-18T12:58:34;8.82;;;2.45;;
29044;SDS011;16133;49.486;12.176;2023-09-18T13:01:03;9.70;;;3.00;;
29044;SDS011;16133;49.486;12.176;2023-09-18T13:03:42;5.63;;;2.50;;
29044;SDS011;16133;49.486;12.176;2023-09-18T13:06:15;6.75;;;2.65;;
29044;SDS011;16133;49.486;12.176;2023-09-18T13:08:42;5.50;;;2.50;;
29044;SDS011;16133;49.486;12.176;2023-09-18T13:11:08;5.88;;;2.15;;
29044;SDS011;16133;49.486;12.176;2023-09-18T13:13:36;6.82;;;2.92;;
29044;SDS011;16133;49.486;12.176;2023-09-18T13:16:04;4.50;;;2.42;;
29044;SDS011;16133;49.486;12.176;2023-09-18T13:18:30;9.38;;;2.60;;
29044;SDS011;16133;49.486;12.176;2023-09-18T13:20:56;6.75;;;2.28;;
29044;SDS011;16133;49.486;12.176;2023-09-18T13:23:31;4.00;;;2.00;;
29044;SDS011;16133;49.486;12.176;2023-09-18T13:26:02;5.35;;;2.05;;
29044;SDS011;16133;49.486;12.176;2023-09-18T13:28:29;12.00;;;2.88;;
29044;SDS011;16133;49.486;12.176;2023-09-18T13:30:57;9.02;;;2.40;;
29044;SDS011;16133;49.486;12.176;2023-09-18T13:33:24;12.10;;;2.50;;
29044;SDS011;16133;49.486;12.176;2023-09-18T13:35:50;3.72;;;1.90;;
29044;SDS011;16133;49.486;12.176;2023-09-18T13:38:18;8.68;;;1.85;;
29044;SDS011;16133;49.486;12.176;2023-09-18T13:40:45;8.70;;;2.80;;
29044;SDS011;16133;49.486;12.176;2023-09-18T13:43:11;14.90;;;2.28;;
29044;SDS011;16133;49.486;12.176;2023-09-18T13:45:37;4.30;;;1.50;;
29044;SDS011;16133;49.486;12.176;2023-09-18T13:48:03;7.22;;;1.85;;
29044;SDS011;16133;49.486;12.176;2023-09-18T13:50:30;6.72;;;2.50;;
29044;SDS011;16133;49.486;12.176;2023-09-18T13:52:56;7.25;;;2.17;;
29044;SDS011;16133;49.486;12.176;2023-09-18T13:55:22;4.40;;;1.92;;
29044;SDS011;16133;49.486;12.176;2023-09-18T13:57:47;6.63;;;1.73;;
29044;SDS011;16133;49.486;12.176;2023-09-18T14:00:13;6.82;;;1.70;;
29044;SDS011;16133;49.486;12.176;2023-09-18T14:02:39;5.90;;;1.50;;
29044;SDS011;16133;49.486;12.176;2023-09-18T14:05:05;4.40;;;1.75;;
29044;SDS011;16133;49.486;12.176;2023-09-18T14:07:31;6.20;;;1.35;;
29044;SDS011;16133;49.486;12.176;2023-09-18T14:09:57;3.33;;;1.85;;
29044;SDS011;16133;49.486;12.176;2023-09-18T14:12:23;6.53;;;1.73;;
29044;SDS011;16133;49.486;12.176;2023-09-18T14:14:49;6.50;;;1.83;;
29044;SDS011;16133;49.486;12.176;2023-09-18T14:17:15;9.60;;;1.58;;
29044;SDS011;16133;49.486;12.176;2023-09-18T14:19:43;5.75;;;1.77;;
29044;SDS011;16133;49.486;12.176;2023-09-18T14:22:09;4.95;;;1.52;;
29044;SDS011;16133;49.486;12.176;2023-09-18T14:24:34;2.72;;;1.48;;
29044;SDS011;16133;49.486;12.176;2023-09-18T14:27:03;3.92;;;1.77;;
29044;SDS011;16133;49.486;12.176;2023-09-18T14:29:29;6.55;;;1.65;;
29044;SDS011;16133;49.486;12.176;2023-09-18T14:32:01;5.35;;;1.70;;
29044;SDS011;16133;49.486;12.176;2023-09-18T14:34:27;3.10;;;1.42;;
29044;SDS011;16133;49.486;12.176;2023-09-18T14:36:52;3.83;;;1.38;;
29044;SDS011;16133;49.486;12.176;2023-09-18T14:39:18;4.82;;;1.45;;
29044;SDS011;16133;49.486;12.176;2023-09-18T14:41:43;2.60;;;1.55;;
29044;SDS011;16133;49.486;12.176;2023-09-18T14:44:09;7.95;;;1.88;;
29044;SDS011;16133;49.486;12.176;2023-09-18T14:46:38;4.20;;;1.58;;
29044;SDS011;16133;49.486;12.176;2023-09-18T14:49:04;7.47;;;1.77;;
29044;SDS011;16133;49.486;12.176;2023-09-18T14:51:30;5.53;;;2.38;;